Hartsfield - Jackson Atlanta International Airport (ATL/KATL)



Flight Aircraft Arriving
CPX2451 B763
A30F
KJFK - John F Kennedy International Airport
United StatesNew York New York, New York
CPX7352 B738
B752
KAFW - Fort Worth Alliance Airport
United StatesTexas Fort Worth, Texas
CPX7483 B763
A30F
KILN - Wilmington Air Park
United StatesOhio Wilmington, Ohio
Flight Aircraft Departing
CPX2450 B763
A30F
KJFK - John F Kennedy International Airport
United StatesNew York New York, New York
CPX7353 B738
B752
KAFW - Fort Worth Alliance Airport
United StatesTexas Fort Worth, Texas
CPX7582 B763
A30F
KCVG - Cincinnati/Northern Kentucky International Airport
United StatesKentucky Covington, Kentucky


Airport Information
Location: Atlanta, Georgia
Coordinates: 33.6367 / -84.4279
Field Elevation: 1,021ft
Longest Runway: 12,376ft
ILS Approaches: YES
Landing Fees: $6,493 per flight
Jet A Price: $0.22/lbs
Charts:

Current Weather
METAR: KATL 152152Z 20006KT 10SM SCT075 BKN085 BKN250 23/07 A3020 RMK AO2 SLP223 T02330067
TAF: KATL 152157Z 1522/1624 22005KT P6SM BKN080 FM160100 VRB03KT P6SM FEW250 FM161500 21007KT P6SM SCT060

Recent Arrivals
Date Flight Type Depart
04/19/2021 CPX7582 B752 Cincinnati/Northern Kentucky International Airport (KCVG)
Recent Departures
Date Flight Type Arrive
04/20/2021 CPX2451 B752 John F Kennedy International Airport (KJFK)